createdAt,value
2023-03-19T00:02:27.324Z,40.28
2023-03-19T00:07:28.966Z,40.38
2023-03-19T00:12:30.485Z,40.28
2023-03-19T00:17:32.211Z,40.43
2023-03-19T00:22:33.751Z,40.93
2023-03-19T00:27:37.358Z,40.88
2023-03-19T00:32:39.521Z,41.11
2023-03-19T00:37:41.827Z,41.11
2023-03-19T00:42:44.793Z,41.21
2023-03-19T00:47:46.355Z,41.07
2023-03-19T00:52:48.201Z,41.48
2023-03-19T00:57:49.765Z,41.45
2023-03-19T01:02:51.720Z,41.33
2023-03-19T01:07:53.341Z,41.27
2023-03-19T01:12:54.954Z,41.30
2023-03-19T01:17:57.047Z,41.33
2023-03-19T01:22:58.835Z,41.46
2023-03-19T01:28:00.459Z,41.17
2023-03-19T01:33:02.123Z,41.78
2023-03-19T01:38:22.093Z,41.69
2023-03-19T01:43:29.557Z,41.69
2023-03-19T01:48:55.054Z,41.87
2023-03-19T01:54:00.619Z,41.90
2023-03-19T01:59:22.064Z,41.66
2023-03-19T02:04:44.749Z,41.92
2023-03-19T02:09:46.939Z,42.07
2023-03-19T02:14:48.785Z,41.79
2023-03-19T02:20:00.031Z,41.84
2023-03-19T02:25:24.673Z,41.69
2023-03-19T02:30:33.062Z,41.91
2023-03-19T02:35:40.465Z,41.78
2023-03-19T02:41:01.618Z,41.78
2023-03-19T02:46:05.797Z,42.23
2023-03-19T02:51:07.433Z,42.37
2023-03-19T02:56:08.978Z,42.58
2023-03-19T03:01:11.024Z,42.65
2023-03-19T03:06:12.818Z,42.72
2023-03-19T03:11:15.480Z,43.13
2023-03-19T03:16:17.373Z,42.64
2023-03-19T03:21:21.311Z,43.28
2023-03-19T03:26:23.009Z,42.99
2023-03-19T03:31:24.598Z,43.37
2023-03-19T03:36:27.440Z,43.12
2023-03-19T03:41:28.977Z,43.26
2023-03-19T03:46:30.703Z,43.30
2023-03-19T03:51:32.883Z,43.30
2023-03-19T03:56:34.662Z,43.21
2023-03-19T04:01:36.577Z,43.27
2023-03-19T04:06:57.487Z,43.62
2023-03-19T04:12:15.903Z,43.83
2023-03-19T04:17:18.173Z,44.02
2023-03-19T04:22:20.805Z,44.53
2023-03-19T04:27:22.374Z,43.83
2023-03-19T04:32:25.043Z,44.22
2023-03-19T04:37:27.127Z,44.24
2023-03-19T04:42:28.994Z,44.61
2023-03-19T04:47:47.304Z,44.49
2023-03-19T04:52:49.665Z,44.69
2023-03-19T04:57:51.579Z,44.49
2023-03-19T05:02:55.875Z,44.37
2023-03-19T05:07:58.147Z,44.94
2023-03-19T05:13:00.789Z,44.37
2023-03-19T05:18:02.469Z,44.58
2023-03-19T05:23:12.280Z,44.84
2023-03-19T05:28:37.954Z,44.87
2023-03-19T05:33:39.861Z,44.50
2023-03-19T05:38:41.720Z,44.76
2023-03-19T05:43:48.899Z,45.07
2023-03-19T05:49:05.921Z,45.20
2023-03-19T05:54:07.600Z,44.89
2023-03-19T05:59:11.639Z,45.34
2023-03-19T06:04:18.013Z,45.21
2023-03-19T06:09:19.801Z,45.76
2023-03-19T06:14:28.093Z,45.84
2023-03-19T06:19:55.410Z,45.49
2023-03-19T06:24:57.040Z,45.64
2023-03-19T06:29:58.622Z,45.48
2023-03-19T06:35:06.559Z,45.84
2023-03-19T06:40:08.863Z,45.99
2023-03-19T06:45:10.779Z,45.98
2023-03-19T06:50:13.124Z,46.12
2023-03-19T06:55:14.745Z,46.25
2023-03-19T07:00:18.590Z,46.52
2023-03-19T07:05:20.232Z,47.36
2023-03-19T07:10:22.547Z,47.56
2023-03-19T07:15:24.093Z,47.18
2023-03-19T07:20:25.883Z,46.87
2023-03-19T07:25:27.506Z,46.58
2023-03-19T07:30:29.030Z,46.44
2023-03-19T07:35:31.342Z,46.46
2023-03-19T07:40:33.258Z,46.90
2023-03-19T07:45:34.874Z,46.71
2023-03-19T07:50:36.526Z,46.65
2023-03-19T07:55:38.480Z,47.36
2023-03-19T08:00:40.020Z,47.26
2023-03-19T08:05:41.955Z,47.44
2023-03-19T08:10:43.785Z,47.49
2023-03-19T08:15:45.423Z,47.13
2023-03-19T08:20:46.993Z,47.33
2023-03-19T08:25:48.720Z,47.25
2023-03-19T08:30:50.276Z,47.21
2023-03-19T08:35:52.234Z,47.46
2023-03-19T08:41:02.030Z,47.75
2023-03-19T08:46:05.017Z,47.63
2023-03-19T08:51:06.550Z,47.92
2023-03-19T08:56:08.608Z,47.68
2023-03-19T09:01:12.865Z,47.47
2023-03-19T09:06:14.971Z,47.98
2023-03-19T09:11:18.019Z,48.15
2023-03-19T09:16:19.830Z,48.25
2023-03-19T09:21:21.541Z,48.23
2023-03-19T09:26:23.126Z,48.13
2023-03-19T09:31:24.792Z,48.27
2023-03-19T09:36:26.628Z,48.29
2023-03-19T09:41:31.444Z,48.34
2023-03-19T09:46:44.378Z,48.44
2023-03-19T09:52:09.713Z,48.85
2023-03-19T09:57:13.217Z,48.81
2023-03-19T10:02:22.460Z,49.02
2023-03-19T10:07:40.505Z,49.18
2023-03-19T10:12:55.679Z,49.39
2023-03-19T10:18:05.228Z,49.22
2023-03-19T10:23:18.923Z,49.56
2023-03-19T10:28:22.087Z,49.56
2023-03-19T10:33:26.437Z,50.06
2023-03-19T10:38:28.182Z,49.72
2023-03-19T10:43:31.622Z,49.61
2023-03-19T10:48:34.694Z,49.87
2023-03-19T10:53:38.128Z,49.96
2023-03-19T10:58:40.692Z,49.93
2023-03-19T11:03:42.336Z,49.75
2023-03-19T11:08:55.872Z,49.72
2023-03-19T11:13:57.860Z,49.67
2023-03-19T11:18:59.373Z,49.88
2023-03-19T11:24:03.448Z,49.47
2023-03-19T11:29:05.933Z,49.47
2023-03-19T11:34:33.989Z,49.41
2023-03-19T11:39:41.476Z,49.15
2023-03-19T11:45:18.736Z,49.22
2023-03-19T11:50:27.084Z,49.31
2023-03-19T11:55:42.179Z,49.39
2023-03-19T12:00:50.770Z,49.34
2023-03-19T12:06:28.501Z,49.20
2023-03-19T12:12:13.841Z,49.17
2023-03-19T12:17:37.909Z,48.69
2023-03-19T12:22:57.616Z,48.66
2023-03-19T12:28:18.061Z,48.62
2023-03-19T12:33:48.744Z,48.19
2023-03-19T12:38:56.257Z,48.09
2023-03-19T12:44:23.240Z,47.61
2023-03-19T12:49:30.326Z,47.63
2023-03-19T12:54:38.221Z,47.65
2023-03-19T12:59:54.626Z,47.52
2023-03-19T13:05:01.546Z,47.09
2023-03-19T13:10:09.620Z,46.93
2023-03-19T13:15:22.086Z,46.68
2023-03-19T13:20:51.041Z,46.34
2023-03-19T13:25:57.712Z,46.39
2023-03-19T13:31:19.283Z,46.11
2023-03-19T13:36:21.062Z,45.88
2023-03-19T13:41:39.630Z,45.64
2023-03-19T13:46:44.921Z,45.74
2023-03-19T13:51:50.575Z,45.55
2023-03-19T13:57:18.232Z,45.28
2023-03-19T14:02:22.978Z,45.09
2023-03-19T14:07:28.758Z,44.59
2023-03-19T14:12:34.273Z,44.59
2023-03-19T14:17:54.689Z,44.25
2023-03-19T14:23:08.886Z,43.97
2023-03-19T14:28:11.184Z,43.70
2023-03-19T14:33:44.388Z,43.80
2023-03-19T14:39:01.888Z,43.31
2023-03-19T14:44:15.862Z,43.31
2023-03-19T14:49:32.647Z,42.98
2023-03-19T14:54:49.137Z,43.00
2023-03-19T14:59:51.055Z,43.12
2023-03-19T15:04:54.911Z,42.88
2023-03-19T15:10:06.663Z,42.91
2023-03-19T15:15:32.508Z,42.69
2023-03-19T15:20:42.482Z,42.52
2023-03-19T15:25:47.842Z,42.49
2023-03-19T15:31:05.694Z,42.56
2023-03-19T15:36:17.774Z,42.74
2023-03-19T15:41:24.343Z,42.70
2023-03-19T15:46:38.404Z,42.91
2023-03-19T15:51:41.232Z,42.67
2023-03-19T15:56:45.323Z,42.58
2023-03-19T16:01:50.313Z,42.51
2023-03-19T16:06:52.365Z,42.48
2023-03-19T16:11:57.609Z,42.23
2023-03-19T16:17:09.264Z,42.15
2023-03-19T16:22:16.949Z,42.36
2023-03-19T16:27:45.577Z,42.28
2023-03-19T16:32:58.433Z,42.03
2023-03-19T16:38:22.910Z,41.40
2023-03-19T16:43:34.328Z,41.14
2023-03-19T16:48:39.236Z,40.98
2023-03-19T16:53:41.152Z,40.60
2023-03-19T16:58:44.199Z,40.71
2023-03-19T17:03:49.538Z,40.54
2023-03-19T17:08:54.953Z,40.33
2023-03-19T17:14:00.632Z,40.79
2023-03-19T17:19:04.728Z,40.73
2023-03-19T17:24:34.307Z,40.91
2023-03-19T17:29:36.799Z,40.89
2023-03-19T17:34:40.481Z,40.68
2023-03-19T17:39:45.768Z,41.43
2023-03-19T17:44:49.678Z,41.57
2023-03-19T17:49:52.415Z,41.73
2023-03-19T17:54:53.957Z,42.08
2023-03-19T17:59:55.577Z,42.20
2023-03-19T18:04:57.915Z,42.55
2023-03-19T18:09:59.399Z,42.74
2023-03-19T18:15:00.921Z,43.24
2023-03-19T18:20:07.182Z,43.20
2023-03-19T18:25:18.447Z,43.49
2023-03-19T18:30:25.880Z,43.88
2023-03-19T18:35:37.073Z,44.13
2023-03-19T18:40:40.927Z,44.15
2023-03-19T18:45:45.984Z,44.21
2023-03-19T18:50:48.483Z,44.65
2023-03-19T18:55:53.715Z,44.50
2023-03-19T19:00:58.480Z,44.52
2023-03-19T19:06:02.521Z,44.61
2023-03-19T19:11:09.335Z,44.82
2023-03-19T19:16:20.571Z,45.45
2023-03-19T19:21:22.212Z,45.38
2023-03-19T19:26:29.696Z,45.62
2023-03-19T19:31:33.927Z,45.71
2023-03-19T19:36:40.579Z,45.51
2023-03-19T19:41:43.771Z,46.17
2023-03-19T19:46:45.726Z,46.30
2023-03-19T19:51:49.730Z,46.64
2023-03-19T19:56:52.233Z,46.85
2023-03-19T20:01:55.217Z,46.80
2023-03-19T20:06:59.132Z,46.80
2023-03-19T20:12:09.671Z,47.07
2023-03-19T20:17:16.207Z,47.23
2023-03-19T20:22:20.171Z,47.38
2023-03-19T20:27:26.380Z,47.62
2023-03-19T20:32:36.818Z,47.57
2023-03-19T20:37:39.796Z,47.99
2023-03-19T20:42:43.294Z,47.69
2023-03-19T20:47:44.998Z,47.81
2023-03-19T20:52:49.184Z,48.02
2023-03-19T20:57:56.614Z,47.93
2023-03-19T21:03:01.961Z,47.96
2023-03-19T21:08:17.357Z,47.97
2023-03-19T21:13:19.388Z,48.11
2023-03-19T21:18:30.263Z,48.06
2023-03-19T21:23:38.687Z,48.12
2023-03-19T21:28:45.427Z,48.37
2023-03-19T21:33:51.567Z,48.62
2023-03-19T21:38:53.228Z,48.86
2023-03-19T21:43:59.609Z,48.92
2023-03-19T21:49:03.793Z,48.97
2023-03-19T21:54:05.878Z,48.80
2023-03-19T21:59:16.601Z,48.40
2023-03-19T22:04:23.005Z,48.56
2023-03-19T22:09:29.497Z,48.44
2023-03-19T22:14:31.085Z,48.54
2023-03-19T22:19:32.656Z,48.13
2023-03-19T22:24:38.630Z,48.76
2023-03-19T22:29:40.798Z,48.55
2023-03-19T22:34:47.590Z,49.09
2023-03-19T22:39:49.251Z,48.92
2023-03-19T22:44:54.563Z,49.03
2023-03-19T22:49:56.243Z,49.26
2023-03-19T22:54:57.878Z,49.36
2023-03-19T22:59:59.477Z,49.08
2023-03-19T23:05:01.991Z,49.29
2023-03-19T23:10:15.498Z,49.38
2023-03-19T23:15:20.921Z,49.43
2023-03-19T23:20:26.085Z,49.49
2023-03-19T23:25:33.209Z,49.74
2023-03-19T23:30:37.171Z,49.70
2023-03-19T23:35:40.202Z,49.92
2023-03-19T23:40:46.208Z,49.93
2023-03-19T23:45:52.587Z,49.84
2023-03-19T23:50:59.071Z,49.95
2023-03-19T23:56:07.713Z,50.19
